EGPF/GLA METAR and TAF weather

Enter ICAO airport designator
Station Type Date Time Source
EGPF METAR 2020/01/23 21:20 UTC NOAA

EGPF 232120Z AUTO 23010KT 9999 BKN013 OVC039 08/07 Q1024


Station Type Date Time Source
EGPF Decoded METAR 2020/01/23 21:20 UTC NOAA

Glasgow Airport, United Kingdom (EGPF) 55-52N 004-26W 0M
Jan 23, 2020 - 04:20 PM EST / 2020.01.23 2120 UTC
Wind: from the SW (230 degrees) at 12 MPH (10 KT):0
Visibility: greater than 7 mile(s):0
Sky conditions: overcast
Temperature: 46 F (8 C)
Dew Point: 44 F (7 C)
Relative Humidity: 93%
Pressure (altimeter): 30.24 in. Hg (1024 hPa)
ob: EGPF 232120Z AUTO 23010KT 9999 BKN013 OVC039 08/07 Q1024
cycle: 21

Station Type Date Time Source
EGPF TAF 2020/01/23 18:47 UTC NOAA

TAF
AMD EGPF 231840Z 2318/2418 24009KT 9999 BKN010
TEMPO 2318/2418 BKN007
TEMPO 2318/2321 4000 DZ BR
TEMPO 2321/2418 6000 RADZ PROB40
TEMPO 2321/2415 4000 DZRA BR BKN004

Example: see airport list